Time;durP1;ratioP1;P1;durP2;ratioP2;P2;SDS_P1;SDS_P2;PMS_P1;PMS_P2;Temp;Humidity;BMP_temperature;BMP_pressure;BME280_temperature;BME280_humidity;BME280_pressure;Samples;Min_cycle;Max_cycle;Signal;HPM_P1;HPM_P2
2021/03/28 00:01:24;;;;;;;;;;;11.90;53.80;;;;;;2071482;28;804;-48
2021/03/28 00:02:48;;;;;;;;;;;11.90;53.70;;;;;;2072225;28;816;-48
2021/03/28 00:04:10;;;;;;;;;;;11.90;53.80;;;;;;2080181;28;747;-51
2021/03/28 00:05:30;;;;;;;;;;;11.90;53.80;;;;;;2073719;28;803;-50
2021/03/28 00:06:49;;;;;;;;;;;11.90;54.40;;;;;;2070492;28;1027;-49
2021/03/28 00:08:29;;;;;;;;;;;11.90;53.80;;;;;;2079692;28;769;-49
2021/03/28 00:09:54;;;;;;;;;;;11.90;53.90;;;;;;2090327;28;1736;-50
2021/03/28 00:11:17;;;;;;;;;;;11.90;53.90;;;;;;2090917;28;753;-48
2021/03/28 00:12:37;;;;;;;;;;;11.90;53.90;;;;;;2085846;28;1515;-49
2021/03/28 00:13:56;;;;;;;;;;;11.90;53.90;;;;;;2096124;28;745;-48
2021/03/28 00:15:17;;;;;;;;;;;11.90;53.90;;;;;;2081932;28;734;-49
2021/03/28 00:16:43;;;;;;;;;;;11.90;53.90;;;;;;2084777;28;793;-51
2021/03/28 00:18:05;;;;;;;;;;;11.90;53.90;;;;;;2079904;28;1915;-51
2021/03/28 00:19:28;;;;;;;;;;;11.90;54.00;;;;;;2093309;28;1405;-52
2021/03/28 00:20:47;;;;;;;;;;;11.90;54.00;;;;;;2090757;28;723;-50
2021/03/28 00:22:07;;;;;;;;;;;11.90;54.00;;;;;;2090687;28;1565;-53
2021/03/28 00:23:26;;;;;;;;;;;11.90;54.00;;;;;;2096147;28;1317;-51
2021/03/28 00:24:55;;;;;;;;;;;11.80;54.00;;;;;;2082275;28;758;-48
2021/03/28 00:26:26;;;;;;;;;;;11.80;54.00;;;;;;2082156;28;1625;-52
2021/03/28 00:27:46;;;;;;;;;;;11.80;54.00;;;;;;2076924;28;1717;-51
2021/03/28 00:29:09;;;;;;;;;;;11.80;54.00;;;;;;2076168;28;1537;-49
2021/03/28 00:30:29;;;;;;;;;;;11.80;54.10;;;;;;2079456;28;1884;-51
2021/03/28 00:31:58;;;;;;;;;;;11.80;54.10;;;;;;2084256;28;1750;-54
2021/03/28 00:33:24;;;;;;;;;;;11.80;54.10;;;;;;2088540;28;1421;-51
2021/03/28 00:34:43;;;;;;;;;;;11.80;54.10;;;;;;2088311;28;745;-51
2021/03/28 00:36:04;;;;;;;;;;;11.80;54.20;;;;;;2090532;28;765;-49
2021/03/28 00:37:25;;;;;;;;;;;11.80;54.20;;;;;;2090480;28;1906;-48
2021/03/28 00:38:46;;;;;;;;;;;11.80;54.20;;;;;;2090584;28;778;-48
2021/03/28 00:40:10;;;;;;;;;;;11.80;54.20;;;;;;2087353;28;801;-53
2021/03/28 00:41:44;;;;;;;;;;;11.80;54.20;;;;;;2087961;28;1042;-49
2021/03/28 00:43:06;;;;;;;;;;;11.80;54.20;;;;;;2073238;28;1877;-55
2021/03/28 00:44:25;;;;;;;;;;;11.80;54.20;;;;;;2079859;28;760;-53
2021/03/28 00:45:56;;;;;;;;;;;11.80;54.20;;;;;;2073263;28;731;-47
2021/03/28 00:47:19;;;;;;;;;;;11.80;54.20;;;;;;2072265;28;739;-48
2021/03/28 00:48:40;;;;;;;;;;;11.80;54.30;;;;;;2071536;28;721;-48
2021/03/28 00:50:05;;;;;;;;;;;11.80;54.30;;;;;;2063087;28;712;-47
2021/03/28 00:51:25;;;;;;;;;;;11.80;54.20;;;;;;2071801;28;906;-47
2021/03/28 00:52:50;;;;;;;;;;;11.80;54.30;;;;;;2082180;28;722;-48
2021/03/28 00:54:18;;;;;;;;;;;11.80;54.30;;;;;;2074077;28;742;-47
2021/03/28 00:55:39;;;;;;;;;;;11.80;54.30;;;;;;2063559;28;857;-47
2021/03/28 00:57:00;;;;;;;;;;;11.80;54.40;;;;;;2071736;28;1154;-46
2021/03/28 00:58:43;;;;;;;;;;;11.70;54.30;;;;;;2084344;28;1114;-48
2021/03/28 01:00:35;;;;;;;;;;;11.70;54.30;;;;;;2071986;28;763;-48
2021/03/28 01:01:56;;;;;;;;;;;11.70;54.30;;;;;;2081377;28;791;-48
2021/03/28 01:03:26;;;;;;;;;;;11.70;54.30;;;;;;2090324;28;1598;-50
2021/03/28 01:04:56;;;;;;;;;;;11.70;54.40;;;;;;2081969;28;758;-47
2021/03/28 01:06:23;;;;;;;;;;;11.70;54.40;;;;;;2090020;28;740;-48
2021/03/28 01:07:43;;;;;;;;;;;11.70;54.40;;;;;;2081647;28;2054;-47
2021/03/28 01:09:13;;;;;;;;;;;11.70;54.40;;;;;;2083456;28;1885;-47
2021/03/28 01:10:32;;;;;;;;;;;11.70;55.00;;;;;;2080080;28;773;-49
2021/03/28 01:11:52;;;;;;;;;;;11.70;54.50;;;;;;2087706;28;711;-48
2021/03/28 01:13:30;;;;;;;;;;;11.70;54.50;;;;;;2082356;28;1467;-47
2021/03/28 01:14:57;;;;;;;;;;;11.70;54.50;;;;;;2073655;28;779;-48
2021/03/28 01:16:35;;;;;;;;;;;11.70;54.50;;;;;;2080183;28;798;-49
2021/03/28 01:17:55;;;;;;;;;;;11.70;54.50;;;;;;2095075;28;1910;-49
2021/03/28 01:19:27;;;;;;;;;;;11.70;54.50;;;;;;2099137;28;734;-49
2021/03/28 01:21:05;;;;;;;;;;;11.70;54.60;;;;;;2098743;28;1876;-48
2021/03/28 01:22:40;;;;;;;;;;;11.70;55.10;;;;;;2099065;28;782;-50
2021/03/28 01:24:03;;;;;;;;;;;11.70;54.60;;;;;;2090267;28;749;-49
2021/03/28 01:25:36;;;;;;;;;;;11.70;54.60;;;;;;2089575;28;780;-48
2021/03/28 01:27:10;;;;;;;;;;;11.70;54.60;;;;;;2085515;28;1196;-48
2021/03/28 01:28:34;;;;;;;;;;;11.70;54.60;;;;;;2089376;28;881;-48
2021/03/28 01:29:58;;;;;;;;;;;11.70;54.60;;;;;;2089720;28;802;-48
2021/03/28 01:31:23;;;;;;;;;;;11.70;55.20;;;;;;2087741;28;771;-48
2021/03/28 01:32:46;;;;;;;;;;;11.70;54.70;;;;;;2087899;28;777;-48
2021/03/28 01:34:08;;;;;;;;;;;11.70;54.70;;;;;;2087257;28;822;-49
2021/03/28 01:35:27;;;;;;;;;;;11.70;54.80;;;;;;2095483;28;757;-47
2021/03/28 01:36:52;;;;;;;;;;;11.70;54.70;;;;;;2099202;28;791;-47
2021/03/28 01:38:13;;;;;;;;;;;11.70;54.70;;;;;;2082323;28;1910;-50
2021/03/28 01:39:43;;;;;;;;;;;11.60;55.20;;;;;;2079092;28;1858;-48
2021/03/28 01:41:05;;;;;;;;;;;11.70;54.80;;;;;;2089043;28;734;-48
2021/03/28 01:42:29;;;;;;;;;;;11.60;54.80;;;;;;2086033;28;1738;-47
2021/03/28 01:43:56;;;;;;;;;;;11.60;54.80;;;;;;2087137;28;1365;-48
2021/03/28 01:45:19;;;;;;;;;;;11.60;54.80;;;;;;2087178;28;732;-48
2021/03/28 01:46:47;;;;;;;;;;;11.60;55.30;;;;;;2073593;28;754;-48
2021/03/28 01:48:13;;;;;;;;;;;11.60;54.80;;;;;;2082341;28;721;-47
2021/03/28 01:49:50;;;;;;;;;;;11.60;55.40;;;;;;2065571;28;797;-47
2021/03/28 01:51:12;;;;;;;;;;;11.60;54.80;;;;;;2080558;28;876;-47
2021/03/28 01:52:39;;;;;;;;;;;11.60;54.80;;;;;;2082237;28;744;-48
2021/03/28 01:54:04;;;;;;;;;;;11.60;55.30;;;;;;2073749;28;733;-49
2021/03/28 01:55:29;;;;;;;;;;;11.60;54.80;;;;;;2079051;28;734;-48
2021/03/28 01:56:59;;;;;;;;;;;11.60;55.40;;;;;;2075368;28;1517;-48
2021/03/28 01:58:37;;;;;;;;;;;11.60;55.40;;;;;;2077444;28;1906;-48
2021/03/28 02:00:02;;;;;;;;;;;11.60;54.90;;;;;;2090429;28;1753;-48
2021/03/28 02:01:41;;;;;;;;;;;11.60;54.90;;;;;;2090325;28;747;-49
2021/03/28 02:03:09;;;;;;;;;;;11.60;54.90;;;;;;2089619;28;1416;-49
2021/03/28 02:04:43;;;;;;;;;;;11.60;55.00;;;;;;2081113;28;755;-47
2021/03/28 02:06:08;;;;;;;;;;;11.60;55.00;;;;;;2089167;28;753;-47
2021/03/28 02:07:39;;;;;;;;;;;11.60;55.00;;;;;;2090705;28;705;-49
2021/03/28 02:09:04;;;;;;;;;;;11.60;55.00;;;;;;2081440;28;1326;-49
2021/03/28 02:10:43;;;;;;;;;;;11.60;55.00;;;;;;2079163;28;734;-48
2021/03/28 02:12:04;;;;;;;;;;;11.60;55.00;;;;;;2094742;28;1620;-47
2021/03/28 02:13:42;;;;;;;;;;;11.60;55.00;;;;;;2071960;28;1277;-49
2021/03/28 02:15:20;;;;;;;;;;;11.60;55.00;;;;;;2064111;28;2114;-48
2021/03/28 02:16:48;;;;;;;;;;;11.60;55.10;;;;;;2074652;28;1022;-48
2021/03/28 02:18:21;;;;;;;;;;;11.60;55.10;;;;;;2084653;28;1911;-47
2021/03/28 02:19:52;;;;;;;;;;;11.60;55.10;;;;;;2082440;28;1762;-48
2021/03/28 02:21:11;;;;;;;;;;;11.60;55.10;;;;;;2078450;28;1030;-48
2021/03/28 02:22:49;;;;;;;;;;;11.60;55.60;;;;;;2091634;28;727;-48
2021/03/28 02:24:11;;;;;;;;;;;11.60;55.10;;;;;;2089637;28;734;-48
2021/03/28 02:25:49;;;;;;;;;;;11.60;55.10;;;;;;2094705;28;899;-49
2021/03/28 02:27:17;;;;;;;;;;;11.60;55.10;;;;;;2090926;28;1682;-49
2021/03/28 02:28:55;;;;;;;;;;;11.60;55.10;;;;;;2097128;28;1088;-48
2021/03/28 02:30:26;;;;;;;;;;;11.50;55.00;;;;;;2097109;28;1652;-49
2021/03/28 02:31:51;;;;;;;;;;;11.50;55.10;;;;;;2089576;28;747;-48
2021/03/28 02:33:10;;;;;;;;;;;11.50;55.10;;;;;;2095612;28;1340;-48
2021/03/28 02:34:36;;;;;;;;;;;11.50;55.10;;;;;;2089535;28;765;-48
2021/03/28 02:36:02;;;;;;;;;;;11.50;55.10;;;;;;2078822;28;727;-48
2021/03/28 02:37:27;;;;;;;;;;;11.50;55.10;;;;;;2092993;28;1370;-48
2021/03/28 02:38:46;;;;;;;;;;;11.50;55.10;;;;;;2089671;28;741;-48
2021/03/28 02:40:08;;;;;;;;;;;11.50;55.10;;;;;;2080543;28;1529;-48
2021/03/28 02:41:39;;;;;;;;;;;11.50;55.10;;;;;;2070263;28;1525;-48
2021/03/28 02:43:16;;;;;;;;;;;11.50;55.10;;;;;;2078005;28;1573;-48
2021/03/28 02:44:38;;;;;;;;;;;11.50;55.20;;;;;;2080255;28;748;-48
2021/03/28 02:46:16;;;;;;;;;;;11.50;55.70;;;;;;2080896;28;920;-48
2021/03/28 02:47:50;;;;;;;;;;;11.50;55.20;;;;;;2079899;28;1857;-47
2021/03/28 02:49:24;;;;;;;;;;;11.50;55.20;;;;;;2095695;28;729;-48
2021/03/28 02:50:52;;;;;;;;;;;11.50;55.20;;;;;;2073044;28;725;-49
2021/03/28 02:52:21;;;;;;;;;;;11.50;55.20;;;;;;2079658;28;735;-49
2021/03/28 02:53:40;;;;;;;;;;;11.50;55.30;;;;;;2081952;28;1486;-49
2021/03/28 02:55:04;;;;;;;;;;;11.50;55.30;;;;;;2072391;28;757;-48
2021/03/28 02:56:26;;;;;;;;;;;11.50;55.30;;;;;;2073888;28;1006;-49
2021/03/28 02:58:04;;;;;;;;;;;11.50;55.40;;;;;;2080771;28;1969;-48
2021/03/28 02:59:36;;;;;;;;;;;11.50;55.30;;;;;;2080584;28;1024;-47
2021/03/28 03:01:09;;;;;;;;;;;11.50;55.30;;;;;;2072488;28;743;-49
2021/03/28 03:02:46;;;;;;;;;;;11.50;55.30;;;;;;2073853;28;1905;-49
2021/03/28 03:04:06;;;;;;;;;;;11.50;55.40;;;;;;2089403;28;701;-47
2021/03/28 03:06:00;;;;;;;;;;;11.50;55.40;;;;;;2080573;28;714;-46
2021/03/28 03:07:22;;;;;;;;;;;11.50;55.40;;;;;;2064109;28;1285;-47
2021/03/28 03:08:44;;;;;;;;;;;11.50;55.40;;;;;;2048174;29;766;-48
2021/03/28 03:10:22;;;;;;;;;;;11.50;55.40;;;;;;2093244;28;1642;-46
2021/03/28 03:11:53;;;;;;;;;;;11.50;55.40;;;;;;2098413;28;706;-49
2021/03/28 03:13:16;;;;;;;;;;;11.50;56.00;;;;;;2089229;28;1324;-49
2021/03/28 03:14:54;;;;;;;;;;;11.40;55.30;;;;;;2084837;28;1825;-49
2021/03/28 03:16:19;;;;;;;;;;;11.40;55.50;;;;;;2093863;28;779;-47
2021/03/28 03:17:57;;;;;;;;;;;11.40;55.50;;;;;;2097934;28;1961;-49
2021/03/28 03:19:35;;;;;;;;;;;11.40;55.50;;;;;;2081063;28;794;-47
2021/03/28 03:21:03;;;;;;;;;;;11.40;55.50;;;;;;2079155;28;738;-48
2021/03/28 03:22:33;;;;;;;;;;;11.40;55.50;;;;;;2079110;28;799;-48
2021/03/28 03:24:04;;;;;;;;;;;11.40;56.10;;;;;;2069132;28;1512;-48
2021/03/28 03:25:24;;;;;;;;;;;11.40;55.60;;;;;;2068842;28;822;-49
2021/03/28 03:26:43;;;;;;;;;;;11.40;55.50;;;;;;2075861;28;932;-46
2021/03/28 03:28:02;;;;;;;;;;;11.40;55.50;;;;;;2091684;28;1623;-49
2021/03/28 03:29:41;;;;;;;;;;;11.40;55.60;;;;;;2089457;28;1016;-47
2021/03/28 03:31:06;;;;;;;;;;;11.40;55.50;;;;;;2072929;28;726;-48
2021/03/28 03:32:28;;;;;;;;;;;11.40;55.50;;;;;;2062485;28;724;-47
2021/03/28 03:34:06;;;;;;;;;;;11.40;55.50;;;;;;2075914;28;1786;-47
2021/03/28 03:35:34;;;;;;;;;;;11.40;55.50;;;;;;2080903;28;744;-46
2021/03/28 03:37:03;;;;;;;;;;;11.40;55.50;;;;;;2097715;28;1484;-49
2021/03/28 03:38:22;;;;;;;;;;;11.40;55.50;;;;;;2098098;28;1898;-48
2021/03/28 03:40:00;;;;;;;;;;;11.40;55.60;;;;;;2095283;28;1865;-49
2021/03/28 03:41:29;;;;;;;;;;;11.40;55.60;;;;;;2089712;28;721;-48
2021/03/28 03:42:55;;;;;;;;;;;11.40;55.60;;;;;;2089282;28;725;-48
2021/03/28 03:44:15;;;;;;;;;;;11.40;55.60;;;;;;2078425;28;750;-48
2021/03/28 03:45:37;;;;;;;;;;;11.40;55.60;;;;;;2090904;28;723;-47
2021/03/28 03:47:02;;;;;;;;;;;11.40;56.20;;;;;;2097826;28;745;-48
2021/03/28 03:48:40;;;;;;;;;;;11.40;55.60;;;;;;2097965;28;775;-47
2021/03/28 03:50:09;;;;;;;;;;;11.40;55.70;;;;;;2098129;28;719;-50
2021/03/28 03:51:34;;;;;;;;;;;11.40;55.80;;;;;;2096495;28;1611;-48
2021/03/28 03:53:02;;;;;;;;;;;11.40;55.80;;;;;;2080707;28;966;-49
2021/03/28 03:54:31;;;;;;;;;;;11.40;55.70;;;;;;2078815;28;758;-49
2021/03/28 03:55:54;;;;;;;;;;;11.40;55.70;;;;;;2078563;28;722;-48
2021/03/28 03:57:28;;;;;;;;;;;11.40;55.70;;;;;;2081961;28;1035;-49
2021/03/28 03:59:05;;;;;;;;;;;11.40;55.80;;;;;;2081806;28;1047;-47
2021/03/28 04:00:29;;;;;;;;;;;11.40;55.80;;;;;;2097364;28;733;-49
2021/03/28 04:02:00;;;;;;;;;;;11.40;56.30;;;;;;2088672;28;1589;-49
2021/03/28 04:03:28;;;;;;;;;;;11.40;55.70;;;;;;2094774;28;1486;-46
2021/03/28 04:04:57;;;;;;;;;;;11.30;55.70;;;;;;2080609;28;738;-48
2021/03/28 04:06:31;;;;;;;;;;;11.40;55.80;;;;;;2079274;28;737;-48
2021/03/28 04:07:53;;;;;;;;;;;11.30;55.80;;;;;;2088550;28;735;-48
2021/03/28 04:09:20;;;;;;;;;;;11.30;55.80;;;;;;2080772;28;744;-48
2021/03/28 04:10:48;;;;;;;;;;;11.30;55.70;;;;;;2070443;28;764;-48
2021/03/28 04:12:12;;;;;;;;;;;11.30;55.70;;;;;;2076870;28;732;-48
2021/03/28 04:13:53;;;;;;;;;;;11.30;56.20;;;;;;2078062;28;1830;-47
2021/03/28 04:15:16;;;;;;;;;;;11.30;55.70;;;;;;2051970;28;2115;-47
2021/03/28 04:16:48;;;;;;;;;;;11.30;55.80;;;;;;2080521;28;1805;-46
2021/03/28 04:18:26;;;;;;;;;;;11.30;55.80;;;;;;2088415;28;1970;-46
2021/03/28 04:20:08;;;;;;;;;;;11.30;55.80;;;;;;2083528;28;1145;-46
2021/03/28 04:21:38;;;;;;;;;;;11.30;55.90;;;;;;2080703;28;1213;-48
2021/03/28 04:22:58;;;;;;;;;;;11.30;55.80;;;;;;2087051;28;1555;-46
2021/03/28 04:24:35;;;;;;;;;;;11.30;55.90;;;;;;2088430;28;1367;-48
2021/03/28 04:26:24;;;;;;;;;;;11.30;55.90;;;;;;2089564;28;1155;-49
2021/03/28 04:27:51;;;;;;;;;;;11.30;56.40;;;;;;2082974;28;1739;-47
2021/03/28 04:29:11;;;;;;;;;;;11.30;55.90;;;;;;2088660;28;1148;-47
2021/03/28 04:30:45;;;;;;;;;;;11.30;55.90;;;;;;2067505;28;906;-46
2021/03/28 04:32:43;;;;;;;;;;;11.30;55.90;;;;;;2078916;28;1707;-49
2021/03/28 04:34:04;;;;;;;;;;;11.30;55.90;;;;;;2075846;28;1494;-47
2021/03/28 04:35:37;;;;;;;;;;;11.30;55.90;;;;;;2075187;28;1260;-47
2021/03/28 04:37:02;;;;;;;;;;;11.30;55.90;;;;;;2065328;28;1534;-47
2021/03/28 04:38:28;;;;;;;;;;;11.30;55.90;;;;;;2068360;28;1902;-49
2021/03/28 04:39:57;;;;;;;;;;;11.30;56.00;;;;;;2084124;28;1788;-49
2021/03/28 04:41:21;;;;;;;;;;;11.30;55.90;;;;;;2090105;28;1560;-47
2021/03/28 04:42:54;;;;;;;;;;;11.30;55.90;;;;;;2085661;28;1227;-48
2021/03/28 04:44:13;;;;;;;;;;;11.30;55.90;;;;;;2081628;28;1239;-47
2021/03/28 04:46:02;;;;;;;;;;;11.30;56.00;;;;;;2086909;28;1286;-46
2021/03/28 04:47:44;;;;;;;;;;;11.30;56.00;;;;;;2057071;28;1217;-47
2021/03/28 04:49:21;;;;;;;;;;;11.30;56.00;;;;;;2062606;28;1479;-47
2021/03/28 04:51:00;;;;;;;;;;;11.30;56.00;;;;;;2088156;28;1158;-47
2021/03/28 04:52:34;;;;;;;;;;;11.30;56.00;;;;;;2090393;28;1150;-47
2021/03/28 04:54:12;;;;;;;;;;;11.30;56.00;;;;;;2086430;28;1495;-47
2021/03/28 04:55:40;;;;;;;;;;;11.30;56.10;;;;;;2088070;28;1298;-49
2021/03/28 04:57:17;;;;;;;;;;;11.30;56.10;;;;;;2076339;28;1188;-47
2021/03/28 04:58:43;;;;;;;;;;;11.30;56.10;;;;;;2089188;28;1399;-46
2021/03/28 05:00:21;;;;;;;;;;;11.30;56.10;;;;;;2091084;28;1555;-48
2021/03/28 05:01:43;;;;;;;;;;;11.30;56.10;;;;;;2087795;28;1035;-48
2021/03/28 05:03:02;;;;;;;;;;;11.30;56.10;;;;;;2090765;28;1551;-48
2021/03/28 05:04:27;;;;;;;;;;;11.20;56.10;;;;;;2090559;28;1232;-48
2021/03/28 05:06:05;;;;;;;;;;;11.30;56.20;;;;;;2091174;28;1192;-48
2021/03/28 05:07:43;;;;;;;;;;;11.20;56.60;;;;;;2090167;28;1174;-48
2021/03/28 05:09:05;;;;;;;;;;;11.20;56.00;;;;;;2088781;28;1247;-49
2021/03/28 05:10:24;;;;;;;;;;;11.20;56.10;;;;;;2090175;28;1232;-48
2021/03/28 05:11:46;;;;;;;;;;;11.20;56.10;;;;;;2090575;28;1974;-48
2021/03/28 05:13:19;;;;;;;;;;;11.20;56.10;;;;;;2090333;28;1469;-46
2021/03/28 05:14:44;;;;;;;;;;;11.20;56.10;;;;;;2087006;28;1611;-48
2021/03/28 05:16:04;;;;;;;;;;;11.20;56.10;;;;;;2085478;28;1276;-47
2021/03/28 05:17:41;;;;;;;;;;;11.20;56.10;;;;;;2085522;28;1192;-48
2021/03/28 05:19:18;;;;;;;;;;;11.20;56.10;;;;;;2087849;28;1330;-49
2021/03/28 05:20:43;;;;;;;;;;;11.20;56.20;;;;;;2089129;28;1158;-47
2021/03/28 05:22:17;;;;;;;;;;;11.20;56.20;;;;;;2091263;28;1342;-47
2021/03/28 05:23:42;;;;;;;;;;;11.20;56.20;;;;;;2085287;28;1542;-48
2021/03/28 05:25:07;;;;;;;;;;;11.20;56.20;;;;;;2089446;28;1298;-47
2021/03/28 05:26:43;;;;;;;;;;;11.20;56.70;;;;;;2088928;28;1226;-49
2021/03/28 05:28:13;;;;;;;;;;;11.20;56.20;;;;;;2087876;28;1507;-48
2021/03/28 05:29:38;;;;;;;;;;;11.20;56.20;;;;;;2086439;28;1271;-48
2021/03/28 05:31:16;;;;;;;;;;;11.20;56.20;;;;;;2085284;28;1271;-48
2021/03/28 05:32:38;;;;;;;;;;;11.20;56.30;;;;;;2090006;28;1129;-47
2021/03/28 05:34:17;;;;;;;;;;;11.20;56.30;;;;;;2090168;28;1156;-48
2021/03/28 05:35:39;;;;;;;;;;;11.20;56.30;;;;;;2088217;28;1414;-49
2021/03/28 05:37:17;;;;;;;;;;;11.20;56.40;;;;;;2088450;28;1199;-46
2021/03/28 05:38:37;;;;;;;;;;;11.20;56.40;;;;;;2086766;28;1544;-48
2021/03/28 05:40:00;;;;;;;;;;;11.20;56.50;;;;;;2090287;28;1158;-47
2021/03/28 05:41:38;;;;;;;;;;;11.30;56.30;;;;;;2087360;28;1012;-45
2021/03/28 05:43:15;;;;;;;;;;;11.30;56.20;;;;;;2084905;28;1559;-46
2021/03/28 05:44:35;;;;;;;;;;;11.30;56.10;;;;;;2086543;28;1261;-48
2021/03/28 05:46:09;;;;;;;;;;;11.30;56.20;;;;;;2088798;28;1253;-48
2021/03/28 05:47:28;;;;;;;;;;;11.30;56.30;;;;;;2086721;28;1240;-48
2021/03/28 05:48:51;;;;;;;;;;;11.30;56.40;;;;;;2088968;28;1034;-48
2021/03/28 05:50:28;;;;;;;;;;;11.30;56.50;;;;;;2087807;28;1327;-47
2021/03/28 05:52:06;;;;;;;;;;;11.20;56.60;;;;;;2082584;28;1286;-47
2021/03/28 05:53:25;;;;;;;;;;;11.30;56.70;;;;;;2088474;28;1520;-48
2021/03/28 05:55:03;;;;;;;;;;;11.20;57.30;;;;;;2088132;28;1613;-49
2021/03/28 05:56:31;;;;;;;;;;;11.20;56.80;;;;;;2085176;28;1124;-49
2021/03/28 05:58:09;;;;;;;;;;;11.20;56.80;;;;;;2087054;28;1906;-48
2021/03/28 05:59:29;;;;;;;;;;;11.20;56.90;;;;;;2090918;28;1398;-48
2021/03/28 06:00:51;;;;;;;;;;;11.20;56.90;;;;;;2087720;28;1115;-49
2021/03/28 06:02:16;;;;;;;;;;;11.20;57.00;;;;;;2090689;28;1588;-48
2021/03/28 06:03:51;;;;;;;;;;;11.20;57.00;;;;;;2085721;28;1477;-49
2021/03/28 06:05:39;;;;;;;;;;;11.20;57.00;;;;;;2088666;28;1151;-49
2021/03/28 06:06:58;;;;;;;;;;;11.20;57.00;;;;;;2055779;28;1474;-49
2021/03/28 06:08:17;;;;;;;;;;;11.20;57.10;;;;;;2073531;28;1222;-48
2021/03/28 06:09:54;;;;;;;;;;;11.20;57.10;;;;;;2087148;28;1266;-49
2021/03/28 06:11:29;;;;;;;;;;;11.20;57.10;;;;;;2090612;28;1777;-48
2021/03/28 06:12:57;;;;;;;;;;;11.20;57.10;;;;;;2088833;28;1348;-49
2021/03/28 06:14:20;;;;;;;;;;;11.20;57.10;;;;;;2090723;28;1588;-49
2021/03/28 06:15:42;;;;;;;;;;;11.20;57.20;;;;;;2086775;28;1305;-48
2021/03/28 06:17:05;;;;;;;;;;;11.20;57.10;;;;;;2090915;28;1137;-49
2021/03/28 06:18:30;;;;;;;;;;;11.20;57.00;;;;;;2083518;28;1950;-48
2021/03/28 06:19:49;;;;;;;;;;;11.20;57.70;;;;;;2084816;28;1157;-47
2021/03/28 06:21:20;;;;;;;;;;;11.20;57.20;;;;;;2089640;28;1097;-48
2021/03/28 06:22:58;;;;;;;;;;;11.20;57.20;;;;;;2091639;28;1173;-46
2021/03/28 06:24:17;;;;;;;;;;;11.20;57.10;;;;;;2088993;28;1234;-49
2021/03/28 06:25:43;;;;;;;;;;;11.20;57.10;;;;;;2090656;28;1744;-49
2021/03/28 06:27:14;;;;;;;;;;;11.20;57.10;;;;;;2082606;28;1179;-49
2021/03/28 06:28:51;;;;;;;;;;;11.20;57.10;;;;;;2070750;28;1227;-49
2021/03/28 06:30:50;;;;;;;;;;;11.20;57.70;;;;;;2086720;28;1139;-48
2021/03/28 06:32:09;;;;;;;;;;;11.20;57.20;;;;;;2067251;28;1178;-46
2021/03/28 06:33:47;;;;;;;;;;;11.10;57.10;;;;;;2064497;28;1489;-48
2021/03/28 06:35:24;;;;;;;;;;;11.20;57.10;;;;;;2055920;28;814;-47
2021/03/28 06:36:43;;;;;;;;;;;11.20;57.10;;;;;;2056602;28;779;-46
2021/03/28 06:38:21;;;;;;;;;;;11.20;57.40;;;;;;2091323;28;1921;-47
2021/03/28 06:39:45;;;;;;;;;;;11.20;57.50;;;;;;2081182;28;811;-46
2021/03/28 06:41:07;;;;;;;;;;;11.10;57.20;;;;;;2087024;28;723;-47
2021/03/28 06:42:45;;;;;;;;;;;11.10;57.90;;;;;;2089626;28;708;-47
2021/03/28 06:44:07;;;;;;;;;;;11.10;57.50;;;;;;2097642;28;705;-47
2021/03/28 06:45:44;;;;;;;;;;;11.10;57.40;;;;;;2088955;28;733;-47
2021/03/28 06:47:06;;;;;;;;;;;11.10;57.40;;;;;;2086950;28;1855;-47
2021/03/28 06:48:25;;;;;;;;;;;11.10;57.50;;;;;;2095284;28;721;-50
2021/03/28 06:49:45;;;;;;;;;;;11.10;57.50;;;;;;2098351;28;772;-48
2021/03/28 06:51:23;;;;;;;;;;;11.10;57.50;;;;;;2098461;28;687;-47
2021/03/28 06:53:01;;;;;;;;;;;11.10;57.50;;;;;;2098437;28;712;-49
2021/03/28 06:54:26;;;;;;;;;;;11.10;57.40;;;;;;2092928;28;1644;-48
2021/03/28 06:55:46;;;;;;;;;;;11.10;58.00;;;;;;2089538;28;1670;-48
2021/03/28 06:57:24;;;;;;;;;;;11.10;57.40;;;;;;2079597;28;1338;-48
2021/03/28 06:58:49;;;;;;;;;;;11.10;57.40;;;;;;2084895;28;1070;-48
2021/03/28 07:00:17;;;;;;;;;;;11.10;57.40;;;;;;2097784;28;938;-47
2021/03/28 07:01:51;;;;;;;;;;;11.10;57.40;;;;;;2089679;28;714;-48
2021/03/28 07:03:10;;;;;;;;;;;11.10;57.40;;;;;;2088476;28;1329;-49
2021/03/28 07:04:39;;;;;;;;;;;11.10;58.00;;;;;;2094757;28;807;-48
2021/03/28 07:05:59;;;;;;;;;;;11.10;57.40;;;;;;2090195;28;1253;-48
2021/03/28 07:07:36;;;;;;;;;;;11.10;57.40;;;;;;2087730;28;1494;-46
2021/03/28 07:09:00;;;;;;;;;;;11.10;57.40;;;;;;2091179;28;1375;-48
2021/03/28 07:10:24;;;;;;;;;;;11.10;57.40;;;;;;2087102;28;1291;-49
2021/03/28 07:12:03;;;;;;;;;;;11.10;57.30;;;;;;2072714;28;1174;-49
2021/03/28 07:13:31;;;;;;;;;;;11.10;57.30;;;;;;2086146;28;1409;-49
2021/03/28 07:14:56;;;;;;;;;;;11.10;57.30;;;;;;2085177;28;1270;-47
2021/03/28 07:16:20;;;;;;;;;;;11.10;57.30;;;;;;2090155;28;1203;-48
2021/03/28 07:17:45;;;;;;;;;;;11.10;57.30;;;;;;2081483;28;1918;-49
2021/03/28 07:19:05;;;;;;;;;;;11.10;57.30;;;;;;2088609;28;1372;-48
2021/03/28 07:20:24;;;;;;;;;;;11.10;57.40;;;;;;2089657;28;1318;-48
2021/03/28 07:21:53;;;;;;;;;;;11.10;57.40;;;;;;2089991;28;1409;-48
2021/03/28 07:23:21;;;;;;;;;;;11.10;57.30;;;;;;2089687;28;1376;-47
2021/03/28 07:24:46;;;;;;;;;;;11.10;57.30;;;;;;2088131;28;1148;-48
2021/03/28 07:26:05;;;;;;;;;;;11.10;57.30;;;;;;2088032;28;1547;-47
2021/03/28 07:27:31;;;;;;;;;;;11.10;57.30;;;;;;2089796;28;1234;-49
2021/03/28 07:28:59;;;;;;;;;;;11.10;57.80;;;;;;2078528;28;1206;-49
2021/03/28 07:30:34;;;;;;;;;;;11.10;57.30;;;;;;2083525;28;1126;-48
2021/03/28 07:32:00;;;;;;;;;;;11.10;57.30;;;;;;2080195;28;1318;-48
2021/03/28 07:33:38;;;;;;;;;;;11.10;57.30;;;;;;2083683;28;1357;-51
2021/03/28 07:35:15;;;;;;;;;;;11.10;57.30;;;;;;2083933;28;1527;-47
2021/03/28 07:36:53;;;;;;;;;;;11.10;57.30;;;;;;2086460;28;1218;-47
2021/03/28 07:38:22;;;;;;;;;;;11.10;57.40;;;;;;2084076;28;2395;-49
2021/03/28 07:40:05;;;;;;;;;;;11.10;57.30;;;;;;2085616;28;1218;-47
2021/03/28 07:41:24;;;;;;;;;;;11.10;57.30;;;;;;2079560;28;1301;-47
2021/03/28 07:43:02;;;;;;;;;;;11.10;57.30;;;;;;2085904;28;1484;-49
2021/03/28 07:44:45;;;;;;;;;;;11.10;57.30;;;;;;2089553;28;1116;-47
2021/03/28 07:46:21;;;;;;;;;;;11.10;57.40;;;;;;2087883;28;1852;-47
2021/03/28 07:47:40;;;;;;;;;;;11.10;57.30;;;;;;2070185;28;1644;-48
2021/03/28 07:48:59;;;;;;;;;;;11.10;57.30;;;;;;2077058;28;1638;-47
2021/03/28 07:50:18;;;;;;;;;;;11.10;57.40;;;;;;2077769;28;1454;-46
2021/03/28 07:51:56;;;;;;;;;;;11.10;57.30;;;;;;2085041;28;1152;-49
2021/03/28 07:53:38;;;;;;;;;;;11.10;57.30;;;;;;2086005;28;1435;-48
2021/03/28 07:55:16;;;;;;;;;;;11.10;57.30;;;;;;2067875;28;1393;-49
2021/03/28 07:56:46;;;;;;;;;;;11.10;57.30;;;;;;2074519;28;1839;-48
2021/03/28 07:58:28;;;;;;;;;;;11.10;57.80;;;;;;2080194;28;1963;-48
2021/03/28 07:59:50;;;;;;;;;;;11.10;57.40;;;;;;2072115;28;1143;-47
2021/03/28 08:01:33;;;;;;;;;;;11.10;57.30;;;;;;2078620;28;1479;-48
2021/03/28 08:03:10;;;;;;;;;;;11.10;57.40;;;;;;2070316;28;1799;-52
2021/03/28 08:04:49;;;;;;;;;;;11.10;57.90;;;;;;2088355;28;1597;-47
2021/03/28 08:06:24;;;;;;;;;;;11.20;58.90;;;;;;2088890;28;1545;-48
2021/03/28 08:07:49;;;;;;;;;;;11.20;58.40;;;;;;2072658;28;762;-47
2021/03/28 08:09:09;;;;;;;;;;;11.20;58.50;;;;;;2078018;28;753;-47
2021/03/28 08:10:38;;;;;;;;;;;11.20;59.00;;;;;;2080760;28;736;-48
2021/03/28 08:12:15;;;;;;;;;;;11.20;59.00;;;;;;2082738;28;787;-47
2021/03/28 08:13:48;;;;;;;;;;;11.20;59.00;;;;;;2082627;28;1404;-48
2021/03/28 08:15:26;;;;;;;;;;;11.20;59.00;;;;;;2072894;28;733;-48
2021/03/28 08:17:04;;;;;;;;;;;11.20;59.10;;;;;;2091364;28;1488;-47
2021/03/28 08:18:27;;;;;;;;;;;11.10;59.10;;;;;;2098985;28;1959;-48
2021/03/28 08:19:49;;;;;;;;;;;11.20;59.20;;;;;;2090281;28;725;-48
2021/03/28 08:21:27;;;;;;;;;;;11.20;59.80;;;;;;2086089;28;739;-47
2021/03/28 08:23:05;;;;;;;;;;;11.10;59.20;;;;;;2095755;28;782;-48
2021/03/28 08:24:43;;;;;;;;;;;11.10;59.10;;;;;;2095593;28;1198;-48
2021/03/28 08:26:18;;;;;;;;;;;11.10;59.20;;;;;;2080211;28;748;-46
2021/03/28 08:27:54;;;;;;;;;;;11.10;59.10;;;;;;2093837;28;1504;-46
2021/03/28 08:29:32;;;;;;;;;;;11.10;59.00;;;;;;2076193;28;1139;-48
2021/03/28 08:31:00;;;;;;;;;;;11.10;59.10;;;;;;2082824;28;1388;-47
2021/03/28 08:32:19;;;;;;;;;;;11.10;59.00;;;;;;2097146;28;754;-48
2021/03/28 08:33:57;;;;;;;;;;;11.10;59.00;;;;;;2090331;28;1285;-48
2021/03/28 08:35:35;;;;;;;;;;;11.10;59.10;;;;;;2097830;28;749;-48
2021/03/28 08:37:05;;;;;;;;;;;11.10;59.00;;;;;;2099050;28;712;-48
2021/03/28 08:38:24;;;;;;;;;;;11.10;58.90;;;;;;2090200;28;1993;-45
2021/03/28 08:39:47;;;;;;;;;;;11.10;58.90;;;;;;2095893;28;753;-46
2021/03/28 08:41:32;;;;;;;;;;;11.10;58.90;;;;;;2099139;28;767;-46
2021/03/28 08:42:51;;;;;;;;;;;11.10;58.90;;;;;;2099368;28;699;-47
2021/03/28 08:44:11;;;;;;;;;;;11.10;58.90;;;;;;2098776;28;1741;-47
2021/03/28 08:45:48;;;;;;;;;;;11.10;58.80;;;;;;2081486;28;741;-48
2021/03/28 08:47:16;;;;;;;;;;;11.10;58.80;;;;;;2082254;28;820;-48
2021/03/28 08:48:44;;;;;;;;;;;11.10;58.80;;;;;;2073986;28;1541;-49